Morton S Bouchard Jr — WSE9678 — position and weather

sailwx.info

Track history (hours):
 
Tides and Currents Weather Stations Pressure Air Temp Water Temp Dewpoint Dewpoint Depression Visibility Wind Speed Wind Dir Waves Ship Positions

Morton S Bouchard Jr

Owner: BOUCHARD TRANSPORTATION CO INC, MELVILLE, NY. More information available from US FCC via Universal Licensing System and Coast Guard Vessel Documentation Center.

Last reported at 2015-Feb-01 12:26 UTC. Time now 2015-Feb-01 13:15 UTC.
Position N 40°33' W 074°14'.

Length 33 m; draft 6 m.

Type: Tug. MMSI: 367006550.

Date/timePositionNaut miles runAvg speedWind from/ knotsBaromVisibWave heightAir tempDewpointWater temp
2015-Feb-01 12:26N 40°33' W 074°14'2 0.9
2015-Feb-01 10:09N 40°35' W 074°12'0 0.6
2015-Feb-01 09:23N 40°35' W 074°12'1 0.1
2015-Jan-31 21:33N 40°37' W 074°12'7 6.5
2015-Jan-31 20:33N 40°39' W 074°04'7 7.4
2015-Jan-31 19:33N 40°45' W 073°58'15 6.2
2015-Jan-31 17:07N 40°54' W 073°42'4 4.1
2015-Jan-31 16:12N 40°55' W 073°38'3 4.9
2015-Jan-31 15:33N 40°57' W 073°34'6 5.4
2015-Jan-31 14:30N 41°00' W 073°28'5 5.6
2015-Jan-31 13:34N 41°03' W 073°22'6 5.7
2015-Jan-31 12:33N 41°04' W 073°14'7 7.1
2015-Jan-31 11:33N 41°06' W 073°05'8 8.2
2015-Jan-31 10:34N 41°11' W 072°57'4 3.7
2015-Jan-31 09:33N 41°08' W 072°54'3 3.2
2015-Jan-31 08:33N 41°10' W 072°57'4 3.7
2015-Jan-31 07:34N 41°10' W 072°53'4 4.1
2015-Jan-31 06:34N 41°07' W 072°56'1010.0
2015-Jan-31 05:33N 41°05' W 073°09'1010.1
2015-Jan-31 04:33N 41°03' W 073°22'1010.2
2015-Jan-31 03:33N 40°59' W 073°34'2 1.8
2015-Jan-31 02:34N 40°58' W 073°36'7 7.0
2015-Jan-31 01:33N 41°01' W 073°28'6 6.2
2015-Jan-31 00:34N 41°03' W 073°20'6 6.2
2015-Jan-30 23:33N 41°05' W 073°12'8 8.3
2015-Jan-30 22:33N 41°08' W 073°02'8 8.2
2015-Jan-30 21:34N 41°12' W 072°53'8 8.4
2015-Jan-30 20:34N 41°12' W 072°42'9 8.5
2015-Jan-30 19:34N 41°12' W 072°30'9 8.7
2015-Jan-30 18:34N 41°13' W 072°19'7 7.4
2015-Jan-30 17:33N 41°14' W 072°09'7 6.6
2015-Jan-30 16:33N 41°14' W 072°00'7 7.5
2015-Jan-30 15:34N 41°16' W 071°50'9 8.9
2015-Jan-30 14:34N 41°17' W 071°39'9 9.1
2015-Jan-30 13:34N 41°18' W 071°27'9 9.3
2015-Jan-30 12:34N 41°21' W 071°15'9 9.5
2015-Jan-30 11:34N 41°25' W 071°03'29 8.4
2015-Jan-30 08:04N 41°45' W 070°35'5 5.7
2015-Jan-30 07:07N 41°47' W 070°29'35 8.8
2015-Jan-30 03:11N 42°20' W 070°46'6 9.3
2015-Jan-30 02:33N 42°23' W 070°53'  
2015-Jan-25 23:27N 42°23' W 070°53'57 4.1
2015-Jan-25 09:33N 41°26' W 071°01'5 4.9
2015-Jan-25 08:33N 41°24' W 071°07'6 5.7
2015-Jan-25 07:33N 41°23' W 071°15'6 5.7
2015-Jan-25 06:33N 41°22' W 071°22'5 5.3
2015-Jan-25 05:33N 41°18' W 071°27'5 4.8
2015-Jan-25 04:33N 41°18' W 071°33'4 4.3
2015-Jan-25 03:34N 41°18' W 071°39'4 4.3
2015-Jan-25 02:33N 41°17' W 071°44'5 4.7
2015-Jan-25 01:33N 41°16' W 071°50'6 5.9
2015-Jan-25 00:33N 41°14' W 071°58'8 8.0
2015-Jan-24 23:33N 41°14' W 072°09'9 9.1
2015-Jan-24 22:33N 41°12' W 072°20'9 9.0
2015-Jan-24 21:33N 41°10' W 072°32'8 7.9
2015-Jan-24 20:33N 41°10' W 072°43'6 6.1
2015-Jan-24 19:33N 41°11' W 072°51'1 0.8
2015-Jan-24 18:33N 41°11' W 072°52'0 0.1
2015-Jan-24 17:33N 41°11' W 072°52'0 0.0
2015-Jan-24 16:33N 41°11' W 072°52'0 0.0
2015-Jan-24 15:33N 41°11' W 072°52'0 0.0
2015-Jan-24 14:33N 41°11' W 072°52'0 0.1
2015-Jan-24 13:15N 41°11' W 072°51'0 0.1
2015-Jan-24 11:18N 41°11' W 072°51'0 0.0
2015-Jan-24 09:33N 41°11' W 072°51'0 0.0
2015-Jan-24 08:33N 41°11' W 072°51'0 0.0
2015-Jan-24 07:33N 41°11' W 072°51'0 0.0
2015-Jan-24 06:34N 41°11' W 072°51'0 0.1
2015-Jan-24 05:34N 41°11' W 072°51'0 0.1
2015-Jan-24 04:33N 41°11' W 072°52'0 0.0
2015-Jan-24 03:33N 41°11' W 072°52'0 0.1
2015-Jan-24 02:33N 41°11' W 072°52'1 1.2
2015-Jan-24 01:33N 41°11' W 072°50'0 0.1
2015-Jan-24 00:34N 41°11' W 072°50'6 6.1
2015-Jan-23 23:33N 41°11' W 072°42'8 7.8
2015-Jan-23 22:33N 41°10' W 072°31'7 7.1
2015-Jan-23 21:34N 41°12' W 072°22'7 6.8
2015-Jan-23 20:34N 41°13' W 072°14'7 7.3
2015-Jan-23 19:33N 41°14' W 072°04'8 8.1
2015-Jan-23 18:33N 41°15' W 071°53'10 9.6
2015-Jan-23 17:33N 41°17' W 071°41'10 9.9
2015-Jan-23 16:33N 41°18' W 071°28'9 9.3
2015-Jan-23 15:33N 41°20' W 071°15'9 9.4
2015-Jan-23 14:33N 41°24' W 071°04'10 8.3
2015-Jan-23 13:22N 41°29' W 070°53'131 8.3
2015-Jan-22 21:34N 43°36' W 070°11'  
Track history (hours):
 
Tides and Currents Weather Stations Pressure Air Temp Water Temp Dewpoint Dewpoint Depression Visibility Wind Speed Wind Dir Waves Ship Positions

Morton S Bouchard Jr

Owner: BOUCHARD TRANSPORTATION CO INC, MELVILLE, NY. More information available from US FCC via Universal Licensing System and Coast Guard Vessel Documentation Center.

Last reported at 2015-Feb-01 12:26 UTC. Time now 2015-Feb-01 13:15 UTC.
Position N 40°33' W 074°14'.

Length 33 m; draft 6 m.

Type: Tug. MMSI: 367006550.

Date/timePositionNaut miles runAvg speedWind from/ knotsBaromVisibWave heightAir tempDewpointWater temp
2015-Feb-01 12:26N 40°33' W 074°14'2 0.9
2015-Feb-01 10:09N 40°35' W 074°12'0 0.6
2015-Feb-01 09:23N 40°35' W 074°12'1 0.1
2015-Jan-31 21:33N 40°37' W 074°12'7 6.5
2015-Jan-31 20:33N 40°39' W 074°04'7 7.4
2015-Jan-31 19:33N 40°45' W 073°58'15 6.2
2015-Jan-31 17:07N 40°54' W 073°42'4 4.1
2015-Jan-31 16:12N 40°55' W 073°38'3 4.9
2015-Jan-31 15:33N 40°57' W 073°34'6 5.4
2015-Jan-31 14:30N 41°00' W 073°28'5 5.6
2015-Jan-31 13:34N 41°03' W 073°22'6 5.7
2015-Jan-31 12:33N 41°04' W 073°14'7 7.1
2015-Jan-31 11:33N 41°06' W 073°05'8 8.2
2015-Jan-31 10:34N 41°11' W 072°57'4 3.7
2015-Jan-31 09:33N 41°08' W 072°54'3 3.2
2015-Jan-31 08:33N 41°10' W 072°57'4 3.7
2015-Jan-31 07:34N 41°10' W 072°53'4 4.1
2015-Jan-31 06:34N 41°07' W 072°56'1010.0
2015-Jan-31 05:33N 41°05' W 073°09'1010.1
2015-Jan-31 04:33N 41°03' W 073°22'1010.2
2015-Jan-31 03:33N 40°59' W 073°34'2 1.8
2015-Jan-31 02:34N 40°58' W 073°36'7 7.0
2015-Jan-31 01:33N 41°01' W 073°28'6 6.2
2015-Jan-31 00:34N 41°03' W 073°20'6 6.2
2015-Jan-30 23:33N 41°05' W 073°12'8 8.3
2015-Jan-30 22:33N 41°08' W 073°02'8 8.2
2015-Jan-30 21:34N 41°12' W 072°53'8 8.4
2015-Jan-30 20:34N 41°12' W 072°42'9 8.5
2015-Jan-30 19:34N 41°12' W 072°30'9 8.7
2015-Jan-30 18:34N 41°13' W 072°19'7 7.4
2015-Jan-30 17:33N 41°14' W 072°09'7 6.6
2015-Jan-30 16:33N 41°14' W 072°00'7 7.5
2015-Jan-30 15:34N 41°16' W 071°50'9 8.9
2015-Jan-30 14:34N 41°17' W 071°39'9 9.1
2015-Jan-30 13:34N 41°18' W 071°27'9 9.3
2015-Jan-30 12:34N 41°21' W 071°15'9 9.5
2015-Jan-30 11:34N 41°25' W 071°03'29 8.4
2015-Jan-30 08:04N 41°45' W 070°35'5 5.7
2015-Jan-30 07:07N 41°47' W 070°29'35 8.8
2015-Jan-30 03:11N 42°20' W 070°46'6 9.3
2015-Jan-30 02:33N 42°23' W 070°53'  
2015-Jan-25 23:27N 42°23' W 070°53'57 4.1
2015-Jan-25 09:33N 41°26' W 071°01'5 4.9
2015-Jan-25 08:33N 41°24' W 071°07'6 5.7
2015-Jan-25 07:33N 41°23' W 071°15'6 5.7
2015-Jan-25 06:33N 41°22' W 071°22'5 5.3
2015-Jan-25 05:33N 41°18' W 071°27'5 4.8
2015-Jan-25 04:33N 41°18' W 071°33'4 4.3
2015-Jan-25 03:34N 41°18' W 071°39'4 4.3
2015-Jan-25 02:33N 41°17' W 071°44'5 4.7
2015-Jan-25 01:33N 41°16' W 071°50'6 5.9
2015-Jan-25 00:33N 41°14' W 071°58'8 8.0
2015-Jan-24 23:33N 41°14' W 072°09'9 9.1
2015-Jan-24 22:33N 41°12' W 072°20'9 9.0
2015-Jan-24 21:33N 41°10' W 072°32'8 7.9
2015-Jan-24 20:33N 41°10' W 072°43'6 6.1
2015-Jan-24 19:33N 41°11' W 072°51'1 0.8
2015-Jan-24 18:33N 41°11' W 072°52'0 0.1
2015-Jan-24 17:33N 41°11' W 072°52'0 0.0
2015-Jan-24 16:33N 41°11' W 072°52'0 0.0
2015-Jan-24 15:33N 41°11' W 072°52'0 0.0
2015-Jan-24 14:33N 41°11' W 072°52'0 0.1
2015-Jan-24 13:15N 41°11' W 072°51'0 0.1
2015-Jan-24 11:18N 41°11' W 072°51'0 0.0
2015-Jan-24 09:33N 41°11' W 072°51'0 0.0
2015-Jan-24 08:33N 41°11' W 072°51'0 0.0
2015-Jan-24 07:33N 41°11' W 072°51'0 0.0
2015-Jan-24 06:34N 41°11' W 072°51'0 0.1
2015-Jan-24 05:34N 41°11' W 072°51'0 0.1
2015-Jan-24 04:33N 41°11' W 072°52'0 0.0
2015-Jan-24 03:33N 41°11' W 072°52'0 0.1
2015-Jan-24 02:33N 41°11' W 072°52'1 1.2
2015-Jan-24 01:33N 41°11' W 072°50'0 0.1
2015-Jan-24 00:34N 41°11' W 072°50'6 6.1
2015-Jan-23 23:33N 41°11' W 072°42'8 7.8
2015-Jan-23 22:33N 41°10' W 072°31'7 7.1
2015-Jan-23 21:34N 41°12' W 072°22'7 6.8
2015-Jan-23 20:34N 41°13' W 072°14'7 7.3
2015-Jan-23 19:33N 41°14' W 072°04'8 8.1
2015-Jan-23 18:33N 41°15' W 071°53'10 9.6
2015-Jan-23 17:33N 41°17' W 071°41'10 9.9
2015-Jan-23 16:33N 41°18' W 071°28'9 9.3
2015-Jan-23 15:33N 41°20' W 071°15'9 9.4
2015-Jan-23 14:33N 41°24' W 071°04'10 8.3
2015-Jan-23 13:22N 41°29' W 070°53'131 8.3
2015-Jan-22 21:34N 43°36' W 070°11'  

Dump ship's entire track history